sensor_id;sensor_type;location;lat;lon;timestamp;P1;durP1;ratioP1;P2;durP2;ratioP2
57339;SDS011;43174;50.930;18.170;2022-12-18T00:06:09;31.80;;;19.90;;
57339;SDS011;43174;50.930;18.170;2022-12-18T00:23:12;19.10;;;17.50;;
57339;SDS011;43174;50.930;18.170;2022-12-18T00:32:54;25.80;;;19.30;;
57339;SDS011;43174;50.930;18.170;2022-12-18T00:42:37;47.80;;;18.40;;
57339;SDS011;43174;50.930;18.170;2022-12-18T00:52:38;32.40;;;23.90;;
57339;SDS011;43174;50.930;18.170;2022-12-18T01:02:22;34.40;;;19.10;;
57339;SDS011;43174;50.930;18.170;2022-12-18T01:12:08;58.00;;;21.50;;
57339;SDS011;43174;50.930;18.170;2022-12-18T01:21:53;12.20;;;11.50;;
57339;SDS011;43174;50.930;18.170;2022-12-18T01:31:35;28.00;;;21.80;;
57339;SDS011;43174;50.930;18.170;2022-12-18T01:41:25;58.80;;;18.90;;
57339;SDS011;43174;50.930;18.170;2022-12-18T01:51:49;24.20;;;22.60;;
57339;SDS011;43174;50.930;18.170;2022-12-18T02:01:31;21.30;;;19.70;;
57339;SDS011;43174;50.930;18.170;2022-12-18T02:11:39;13.80;;;13.40;;
57339;SDS011;43174;50.930;18.170;2022-12-18T02:21:59;19.90;;;18.70;;
57339;SDS011;43174;50.930;18.170;2022-12-18T02:32:08;19.00;;;10.70;;
57339;SDS011;43174;50.930;18.170;2022-12-18T02:41:54;30.20;;;25.20;;
57339;SDS011;43174;50.930;18.170;2022-12-18T02:52:14;52.70;;;24.90;;
57339;SDS011;43174;50.930;18.170;2022-12-18T03:02:55;22.10;;;19.90;;
57339;SDS011;43174;50.930;18.170;2022-12-18T03:13:10;20.40;;;18.40;;
57339;SDS011;43174;50.930;18.170;2022-12-18T03:23:05;23.90;;;21.90;;
57339;SDS011;43174;50.930;18.170;2022-12-18T03:32:52;31.80;;;14.10;;
57339;SDS011;43174;50.930;18.170;2022-12-18T03:42:43;16.10;;;15.10;;
57339;SDS011;43174;50.930;18.170;2022-12-18T03:53:09;16.80;;;16.00;;
57339;SDS011;43174;50.930;18.170;2022-12-18T04:03:09;13.50;;;12.90;;
57339;SDS011;43174;50.930;18.170;2022-12-18T04:20:13;26.40;;;15.60;;
57339;SDS011;43174;50.930;18.170;2022-12-18T04:29:56;34.00;;;19.30;;
57339;SDS011;43174;50.930;18.170;2022-12-18T04:39:41;19.80;;;18.10;;
57339;SDS011;43174;50.930;18.170;2022-12-18T04:49:25;28.60;;;18.10;;
57339;SDS011;43174;50.930;18.170;2022-12-18T04:59:09;44.10;;;15.30;;
57339;SDS011;43174;50.930;18.170;2022-12-18T05:08:52;26.40;;;18.20;;
57339;SDS011;43174;50.930;18.170;2022-12-18T05:18:35;34.00;;;27.00;;
57339;SDS011;43174;50.930;18.170;2022-12-18T05:28:21;54.20;;;28.80;;
57339;SDS011;43174;50.930;18.170;2022-12-18T05:38:05;71.40;;;18.20;;
57339;SDS011;43174;50.930;18.170;2022-12-18T05:47:47;35.10;;;21.30;;
57339;SDS011;43174;50.930;18.170;2022-12-18T05:57:30;77.70;;;20.80;;
57339;SDS011;43174;50.930;18.170;2022-12-18T06:07:12;12.50;;;11.70;;
57339;SDS011;43174;50.930;18.170;2022-12-18T06:16:59;24.80;;;22.20;;
57339;SDS011;43174;50.930;18.170;2022-12-18T06:26:41;49.90;;;26.70;;
57339;SDS011;43174;50.930;18.170;2022-12-18T06:36:27;28.10;;;23.00;;
57339;SDS011;43174;50.930;18.170;2022-12-18T06:46:11;47.50;;;29.10;;
57339;SDS011;43174;50.930;18.170;2022-12-18T06:56:03;14.30;;;13.80;;
57339;SDS011;43174;50.930;18.170;2022-12-18T06:58:30;39.10;;;24.50;;
57339;SDS011;43174;50.930;18.170;2022-12-18T07:08:19;62.60;;;33.80;;
57339;SDS011;43174;50.930;18.170;2022-12-18T07:18:01;73.60;;;22.10;;
57339;SDS011;43174;50.930;18.170;2022-12-18T07:27:43;19.80;;;18.20;;
57339;SDS011;43174;50.930;18.170;2022-12-18T07:37:25;45.80;;;18.60;;
57339;SDS011;43174;50.930;18.170;2022-12-18T07:47:25;46.10;;;23.20;;
57339;SDS011;43174;50.930;18.170;2022-12-18T07:57:08;23.20;;;22.30;;
57339;SDS011;43174;50.930;18.170;2022-12-18T07:59:34;79.30;;;37.00;;
57339;SDS011;43174;50.930;18.170;2022-12-18T08:16:35;30.30;;;26.40;;
57339;SDS011;43174;50.930;18.170;2022-12-18T08:26:18;51.90;;;24.50;;
57339;SDS011;43174;50.930;18.170;2022-12-18T08:36:02;46.20;;;28.70;;
57339;SDS011;43174;50.930;18.170;2022-12-18T08:46:08;59.40;;;25.10;;
57339;SDS011;43174;50.930;18.170;2022-12-18T08:55:51;39.70;;;25.60;;
57339;SDS011;43174;50.930;18.170;2022-12-18T09:05:48;7.90;;;7.60;;
57339;SDS011;43174;50.930;18.170;2022-12-18T09:15:43;43.10;;;27.50;;
57339;SDS011;43174;50.930;18.170;2022-12-18T09:25:28;33.90;;;21.30;;
57339;SDS011;43174;50.930;18.170;2022-12-18T09:35:32;41.80;;;25.40;;
57339;SDS011;43174;50.930;18.170;2022-12-18T09:45:23;28.40;;;24.50;;
57339;SDS011;43174;50.930;18.170;2022-12-18T09:55:36;14.60;;;13.80;;
57339;SDS011;43174;50.930;18.170;2022-12-18T10:15:54;40.50;;;25.00;;
57339;SDS011;43174;50.930;18.170;2022-12-18T10:26:39;28.10;;;21.70;;
57339;SDS011;43174;50.930;18.170;2022-12-18T10:36:38;26.40;;;23.20;;
57339;SDS011;43174;50.930;18.170;2022-12-18T10:46:38;45.40;;;19.20;;
57339;SDS011;43174;50.930;18.170;2022-12-18T10:56:31;38.10;;;21.70;;
57339;SDS011;43174;50.930;18.170;2022-12-18T11:24:30;71.10;;;21.40;;
57339;SDS011;43174;50.930;18.170;2022-12-18T11:34:38;25.40;;;22.20;;
57339;SDS011;43174;50.930;18.170;2022-12-18T12:24:12;59.80;;;27.10;;
57339;SDS011;43174;50.930;18.170;2022-12-18T12:34:26;75.20;;;30.00;;
57339;SDS011;43174;50.930;18.170;2022-12-18T12:44:55;88.30;;;28.80;;
57339;SDS011;43174;50.930;18.170;2022-12-18T12:55:02;85.10;;;32.20;;
57339;SDS011;43174;50.930;18.170;2022-12-18T13:40:57;83.40;;;34.90;;
57339;SDS011;43174;50.930;18.170;2022-12-18T13:51:06;71.30;;;32.00;;
57339;SDS011;43174;50.930;18.170;2022-12-18T14:00:58;41.00;;;20.30;;
57339;SDS011;43174;50.930;18.170;2022-12-18T14:11:06;70.40;;;28.70;;
57339;SDS011;43174;50.930;18.170;2022-12-18T14:28:21;33.40;;;25.30;;
57339;SDS011;43174;50.930;18.170;2022-12-18T14:38:20;56.30;;;30.50;;
57339;SDS011;43174;50.930;18.170;2022-12-18T14:48:11;86.60;;;46.00;;
57339;SDS011;43174;50.930;18.170;2022-12-18T14:58:13;137.50;;;48.00;;
57339;SDS011;43174;50.930;18.170;2022-12-18T15:03:06;268.10;;;89.00;;
57339;SDS011;43174;50.930;18.170;2022-12-18T15:22:53;120.10;;;58.00;;
57339;SDS011;43174;50.930;18.170;2022-12-18T15:32:49;164.00;;;64.70;;
57339;SDS011;43174;50.930;18.170;2022-12-18T15:42:43;138.90;;;56.50;;
57339;SDS011;43174;50.930;18.170;2022-12-18T15:52:45;272.30;;;72.40;;
57339;SDS011;43174;50.930;18.170;2022-12-18T16:00:25;264.40;;;91.30;;
57339;SDS011;43174;50.930;18.170;2022-12-18T16:10:09;308.60;;;97.20;;
57339;SDS011;43174;50.930;18.170;2022-12-18T16:19:51;288.60;;;123.50;;
57339;SDS011;43174;50.930;18.170;2022-12-18T16:36:55;275.20;;;97.40;;
57339;SDS011;43174;50.930;18.170;2022-12-18T16:54:03;292.80;;;119.10;;
57339;SDS011;43174;50.930;18.170;2022-12-18T17:11:13;138.40;;;34.90;;
57339;SDS011;43174;50.930;18.170;2022-12-18T17:21:03;289.00;;;91.30;;
57339;SDS011;43174;50.930;18.170;2022-12-18T17:30:52;156.70;;;62.00;;
57339;SDS011;43174;50.930;18.170;2022-12-18T17:40:38;295.20;;;133.50;;
57339;SDS011;43174;50.930;18.170;2022-12-18T17:50:25;252.70;;;92.50;;
57339;SDS011;43174;50.930;18.170;2022-12-18T18:00:12;268.40;;;74.40;;
57339;SDS011;43174;50.930;18.170;2022-12-18T18:21:13;148.80;;;52.60;;
57339;SDS011;43174;50.930;18.170;2022-12-18T18:30:56;86.20;;;43.50;;
57339;SDS011;43174;50.930;18.170;2022-12-18T18:47:59;83.70;;;43.60;;
57339;SDS011;43174;50.930;18.170;2022-12-18T18:57:51;140.30;;;45.70;;
57339;SDS011;43174;50.930;18.170;2022-12-18T19:07:35;122.90;;;49.40;;
57339;SDS011;43174;50.930;18.170;2022-12-18T19:17:43;128.10;;;56.30;;
57339;SDS011;43174;50.930;18.170;2022-12-18T19:27:28;111.60;;;54.80;;
57339;SDS011;43174;50.930;18.170;2022-12-18T19:37:24;94.10;;;38.30;;
57339;SDS011;43174;50.930;18.170;2022-12-18T19:47:07;85.20;;;47.50;;
57339;SDS011;43174;50.930;18.170;2022-12-18T19:56:49;97.40;;;53.00;;
57339;SDS011;43174;50.930;18.170;2022-12-18T20:06:54;120.50;;;46.60;;
57339;SDS011;43174;50.930;18.170;2022-12-18T20:16:40;47.40;;;30.50;;
57339;SDS011;43174;50.930;18.170;2022-12-18T20:26:24;113.70;;;48.70;;
57339;SDS011;43174;50.930;18.170;2022-12-18T20:36:09;80.80;;;45.90;;
57339;SDS011;43174;50.930;18.170;2022-12-18T21:00:42;172.80;;;61.50;;
57339;SDS011;43174;50.930;18.170;2022-12-18T21:10:26;161.60;;;51.40;;
57339;SDS011;43174;50.930;18.170;2022-12-18T21:20:10;75.00;;;41.60;;
57339;SDS011;43174;50.930;18.170;2022-12-18T21:29:54;89.70;;;41.90;;
57339;SDS011;43174;50.930;18.170;2022-12-18T21:39:38;62.30;;;37.10;;
57339;SDS011;43174;50.930;18.170;2022-12-18T21:49:42;116.70;;;29.00;;
57339;SDS011;43174;50.930;18.170;2022-12-18T21:59:34;89.40;;;34.20;;
57339;SDS011;43174;50.930;18.170;2022-12-18T22:09:20;25.60;;;23.70;;
57339;SDS011;43174;50.930;18.170;2022-12-18T22:19:04;38.00;;;25.20;;
57339;SDS011;43174;50.930;18.170;2022-12-18T22:28:54;79.00;;;37.00;;
57339;SDS011;43174;50.930;18.170;2022-12-18T22:39:02;118.20;;;46.90;;
57339;SDS011;43174;50.930;18.170;2022-12-18T23:03:21;64.10;;;42.70;;
57339;SDS011;43174;50.930;18.170;2022-12-18T23:13:03;76.00;;;42.20;;
57339;SDS011;43174;50.930;18.170;2022-12-18T23:22:47;88.30;;;46.60;;
57339;SDS011;43174;50.930;18.170;2022-12-18T23:32:29;80.40;;;41.30;;
57339;SDS011;43174;50.930;18.170;2022-12-18T23:49:33;80.40;;;46.20;;
57339;SDS011;43174;50.930;18.170;2022-12-18T23:59:15;47.20;;;27.60;;
